Time;durP1;ratioP1;P1;durP2;ratioP2;P2;SDS_P1;SDS_P2;PMS_P1;PMS_P2;Temp;Humidity;BMP_temperature;BMP_pressure;BME280_temperature;BME280_humidity;BME280_pressure;Samples;Min_cycle;Max_cycle;Signal;HPM_P1;HPM_P2
2022/06/08 00:01:16;;;;;;;;;;;10.00;99.90;;;;;;5030745;28;19928;-69
2022/06/08 00:03:53;;;;;;;;;;;10.00;99.90;;;;;;5028507;28;19921;-69
2022/06/08 00:06:18;;;;;;;;;;;10.00;99.90;;;;;;5030172;28;19920;-69
2022/06/08 00:08:45;;;;;;;;;;;10.00;99.90;;;;;;5028370;28;20386;-69
2022/06/08 00:11:10;;;;;;;;;;;10.00;99.90;;;;;;5025226;28;19928;-69
2022/06/08 00:13:36;;;;;;;;;;;10.10;99.90;;;;;;5028813;28;20373;-69
2022/06/08 00:16:02;;;;;;;;;;;10.00;99.90;;;;;;5028662;28;19955;-69
2022/06/08 00:18:28;;;;;;;;;;;10.10;99.90;;;;;;5031869;28;20055;-69
2022/06/08 00:20:54;;;;;;;;;;;10.10;99.90;;;;;;5031829;28;20488;-69
2022/06/08 00:23:20;;;;;;;;;;;9.90;99.90;;;;;;5010540;28;19925;-69
2022/06/08 00:25:46;;;;;;;;;;;10.20;99.90;;;;;;5032336;28;20063;-69
2022/06/08 00:28:11;;;;;;;;;;;10.00;99.90;;;;;;5032352;28;19960;-69
2022/06/08 00:30:37;;;;;;;;;;;10.10;99.90;;;;;;5032028;28;19921;-69
2022/06/08 00:33:03;;;;;;;;;;;10.20;99.90;;;;;;5030271;28;19925;-69
2022/06/08 00:35:29;;;;;;;;;;;10.00;99.90;;;;;;5028560;28;19964;-69
2022/06/08 00:37:54;;;;;;;;;;;10.00;99.90;;;;;;5032353;28;19990;-69
2022/06/08 00:40:21;;;;;;;;;;;10.10;99.90;;;;;;5016070;28;19917;-69
2022/06/08 00:42:47;;;;;;;;;;;9.90;99.90;;;;;;5029980;28;20369;-69
2022/06/08 00:45:23;;;;;;;;;;;9.90;99.90;;;;;;5027612;28;20440;-69
2022/06/08 00:48:00;;;;;;;;;;;10.10;99.90;;;;;;5026794;28;19917;-69
2022/06/08 00:50:30;;;;;;;;;;;10.20;99.90;;;;;;5028334;28;19924;-69
2022/06/08 00:52:56;;;;;;;;;;;10.20;99.90;;;;;;5016495;28;20008;-69
2022/06/08 00:55:23;;;;;;;;;;;10.20;99.90;;;;;;5027150;28;20032;-69
2022/06/08 00:57:51;;;;;;;;;;;10.00;99.90;;;;;;5029935;28;19921;-69
2022/06/08 01:00:18;;;;;;;;;;;10.10;99.90;;;;;;5028340;28;19921;-69
2022/06/08 01:02:44;;;;;;;;;;;10.20;99.90;;;;;;5028092;28;19917;-69
2022/06/08 01:05:28;;;;;;;;;;;10.20;99.90;;;;;;5010366;28;20437;-69
2022/06/08 01:07:55;;;;;;;;;;;10.10;99.90;;;;;;5029240;28;20047;-68
2022/06/08 01:10:22;;;;;;;;;;;10.00;99.90;;;;;;5029029;28;20003;-69
2022/06/08 01:12:48;;;;;;;;;;;10.00;99.90;;;;;;5029060;28;19921;-69
2022/06/08 01:15:15;;;;;;;;;;;10.10;99.90;;;;;;5011934;28;20032;-69
2022/06/08 01:17:41;;;;;;;;;;;10.10;99.90;;;;;;5029132;28;19920;-69
2022/06/08 01:20:07;;;;;;;;;;;10.00;99.90;;;;;;5030160;28;19923;-69
2022/06/08 01:22:32;;;;;;;;;;;9.90;99.90;;;;;;5023320;28;19929;-69
2022/06/08 01:24:58;;;;;;;;;;;9.90;99.90;;;;;;5023765;28;20249;-69
2022/06/08 01:27:23;;;;;;;;;;;10.00;99.90;;;;;;5031055;28;19921;-69
2022/06/08 01:30:04;;;;;;;;;;;10.00;99.90;;;;;;5032077;28;19921;-69
2022/06/08 01:32:49;;;;;;;;;;;9.80;99.90;;;;;;5031154;28;19928;-69
2022/06/08 01:35:17;;;;;;;;;;;9.90;99.90;;;;;;5027775;28;19928;-69
2022/06/08 01:38:01;;;;;;;;;;;9.90;99.90;;;;;;5027688;28;19956;-69
2022/06/08 01:40:27;;;;;;;;;;;9.90;99.90;;;;;;5035776;28;19927;-69
2022/06/08 01:43:05;;;;;;;;;;;9.90;99.90;;;;;;5023673;28;19925;-69
2022/06/08 01:45:43;;;;;;;;;;;9.70;99.90;;;;;;5025759;28;20058;-69
2022/06/08 01:48:10;;;;;;;;;;;9.80;99.90;;;;;;5005135;28;19932;-70
2022/06/08 01:50:55;;;;;;;;;;;9.90;99.90;;;;;;5024877;28;19917;-69
2022/06/08 01:53:20;;;;;;;;;;;9.80;99.90;;;;;;5022557;28;19922;-69
2022/06/08 01:55:46;;;;;;;;;;;9.80;99.90;;;;;;5023629;28;19925;-69
2022/06/08 01:58:15;;;;;;;;;;;10.00;99.90;;;;;;5040262;28;20678;-69
2022/06/08 02:00:46;;;;;;;;;;;9.90;99.90;;;;;;5023741;28;19956;-69
2022/06/08 02:03:30;;;;;;;;;;;9.80;99.90;;;;;;5021878;28;20468;-70
2022/06/08 02:05:56;;;;;;;;;;;9.80;99.90;;;;;;5021589;28;20428;-69
2022/06/08 02:08:22;;;;;;;;;;;10.00;99.90;;;;;;5022106;28;19928;-69
2022/06/08 02:10:50;;;;;;;;;;;9.80;99.90;;;;;;5022893;28;19920;-70
2022/06/08 02:13:20;;;;;;;;;;;10.00;99.90;;;;;;5007114;28;20001;-69
2022/06/08 02:15:47;;;;;;;;;;;10.00;99.90;;;;;;5024935;28;19925;-69
2022/06/08 02:18:16;;;;;;;;;;;9.80;99.90;;;;;;5023042;28;19920;-69
2022/06/08 02:20:46;;;;;;;;;;;10.00;99.90;;;;;;5023622;28;19963;-69
2022/06/08 02:23:14;;;;;;;;;;;9.90;99.90;;;;;;5022811;28;19994;-69
2022/06/08 02:25:42;;;;;;;;;;;9.80;99.90;;;;;;5024893;28;19995;-69
2022/06/08 02:28:12;;;;;;;;;;;9.80;99.90;;;;;;5027131;28;20007;-69
2022/06/08 02:30:49;;;;;;;;;;;9.90;99.90;;;;;;5023159;28;19927;-69
2022/06/08 02:36:20;;;;;;;;;;;9.80;99.90;;;;;;5021703;28;20042;-69
2022/06/08 02:39:07;;;;;;;;;;;10.00;99.90;;;;;;5006245;28;19920;-69
2022/06/08 02:41:34;;;;;;;;;;;10.10;99.90;;;;;;5024341;28;20321;-69
2022/06/08 02:44:03;;;;;;;;;;;10.10;99.90;;;;;;5022008;28;19921;-69
2022/06/08 02:46:40;;;;;;;;;;;10.00;99.90;;;;;;5032791;28;20008;-69
2022/06/08 02:49:06;;;;;;;;;;;10.10;99.90;;;;;;5028565;28;19960;-69
2022/06/08 02:51:32;;;;;;;;;;;10.10;99.90;;;;;;5025713;28;19952;-69
2022/06/08 02:53:58;;;;;;;;;;;10.10;99.90;;;;;;5015076;28;19931;-69
2022/06/08 02:56:31;;;;;;;;;;;10.10;99.90;;;;;;5027422;28;19992;-69
2022/06/08 02:59:01;;;;;;;;;;;10.10;99.90;;;;;;5026157;28;20420;-70
2022/06/08 03:01:32;;;;;;;;;;;10.00;99.90;;;;;;5018965;28;19921;-69
2022/06/08 03:04:03;;;;;;;;;;;10.00;99.90;;;;;;5025557;28;19925;-69
2022/06/08 03:06:33;;;;;;;;;;;10.30;99.90;;;;;;5029146;28;19917;-70
2022/06/08 03:09:01;;;;;;;;;;;10.30;99.90;;;;;;5032849;28;19999;-69
2022/06/08 03:11:31;;;;;;;;;;;10.10;99.90;;;;;;5049854;28;19927;-69
2022/06/08 03:14:00;;;;;;;;;;;10.10;99.90;;;;;;5035462;28;19925;-69
2022/06/08 03:16:28;;;;;;;;;;;10.30;99.90;;;;;;5040888;28;20007;-69
2022/06/08 03:18:53;;;;;;;;;;;10.30;99.90;;;;;;5030731;28;19921;-69
2022/06/08 03:21:19;;;;;;;;;;;10.20;99.90;;;;;;5029943;28;19928;-69
2022/06/08 03:23:44;;;;;;;;;;;10.10;99.90;;;;;;5029037;28;19925;-69
2022/06/08 03:26:10;;;;;;;;;;;10.20;99.90;;;;;;5029412;28;19917;-69
2022/06/08 03:28:36;;;;;;;;;;;10.20;99.90;;;;;;5031070;28;19954;-70
2022/06/08 03:31:01;;;;;;;;;;;10.10;99.90;;;;;;5029641;28;19921;-69
2022/06/08 03:33:27;;;;;;;;;;;10.30;99.90;;;;;;5043237;28;19936;-69
2022/06/08 03:35:52;;;;;;;;;;;10.10;99.90;;;;;;5029591;28;19917;-70
2022/06/08 03:38:18;;;;;;;;;;;10.30;99.90;;;;;;5027855;28;19925;-69
2022/06/08 03:40:44;;;;;;;;;;;10.40;99.90;;;;;;5026698;28;19928;-69
2022/06/08 03:43:10;;;;;;;;;;;10.30;99.90;;;;;;5023090;28;19929;-70
2022/06/08 03:45:40;;;;;;;;;;;10.40;99.90;;;;;;5028803;28;20338;-69
2022/06/08 03:48:06;;;;;;;;;;;10.20;99.90;;;;;;5028416;28;19921;-70
2022/06/08 03:50:31;;;;;;;;;;;10.40;99.90;;;;;;5026314;28;20020;-70
2022/06/08 03:53:00;;;;;;;;;;;10.30;99.90;;;;;;5025088;28;19932;-70
2022/06/08 03:55:26;;;;;;;;;;;10.60;99.90;;;;;;5025722;28;19927;-69
2022/06/08 03:57:52;;;;;;;;;;;10.70;99.90;;;;;;5026226;28;20241;-70
2022/06/08 04:00:19;;;;;;;;;;;10.60;99.90;;;;;;5029554;28;19921;-69
2022/06/08 04:02:46;;;;;;;;;;;10.80;99.90;;;;;;5024715;28;20266;-70
2022/06/08 04:05:12;;;;;;;;;;;10.70;99.90;;;;;;5026201;28;19943;-70
2022/06/08 04:07:38;;;;;;;;;;;10.80;99.90;;;;;;5009814;28;19921;-69
2022/06/08 04:10:04;;;;;;;;;;;10.60;99.90;;;;;;5011323;28;19917;-70
2022/06/08 04:12:29;;;;;;;;;;;10.70;99.90;;;;;;5020059;28;20337;-69
2022/06/08 04:14:55;;;;;;;;;;;10.80;99.90;;;;;;5030909;28;19928;-70
2022/06/08 04:17:20;;;;;;;;;;;10.70;99.90;;;;;;5016119;28;19921;-71
2022/06/08 04:19:49;;;;;;;;;;;10.70;99.90;;;;;;5014469;28;19924;-70
2022/06/08 04:22:16;;;;;;;;;;;10.80;99.90;;;;;;5027241;28;19925;-69
2022/06/08 04:24:42;;;;;;;;;;;11.10;99.90;;;;;;5032376;28;19917;-70
2022/06/08 04:27:08;;;;;;;;;;;11.00;99.90;;;;;;5014546;28;19929;-70
2022/06/08 04:29:34;;;;;;;;;;;11.00;99.90;;;;;;5032111;28;19917;-69
2022/06/08 04:31:59;;;;;;;;;;;11.10;99.90;;;;;;5007387;28;19925;-70
2022/06/08 04:34:25;;;;;;;;;;;11.40;99.90;;;;;;5012955;28;20346;-70
2022/06/08 04:36:51;;;;;;;;;;;11.30;99.90;;;;;;5032052;28;19920;-70
2022/06/08 04:39:16;;;;;;;;;;;11.50;99.90;;;;;;4998941;28;19992;-70
2022/06/08 04:41:42;;;;;;;;;;;11.60;99.90;;;;;;5029070;28;19953;-70
2022/06/08 04:44:08;;;;;;;;;;;11.80;99.90;;;;;;5025905;28;19917;-70
2022/06/08 04:46:34;;;;;;;;;;;12.10;99.90;;;;;;5029956;28;20380;-69
2022/06/08 04:49:00;;;;;;;;;;;12.20;99.90;;;;;;5017765;28;20019;-69
2022/06/08 04:51:25;;;;;;;;;;;12.30;99.90;;;;;;5038355;28;19963;-70
2022/06/08 04:53:51;;;;;;;;;;;12.40;99.90;;;;;;5023396;28;19921;-70
2022/06/08 04:56:17;;;;;;;;;;;12.30;99.90;;;;;;5015072;28;19919;-70
2022/06/08 04:58:42;;;;;;;;;;;12.40;99.90;;;;;;5005827;28;20439;-69
2022/06/08 05:01:08;;;;;;;;;;;12.50;99.90;;;;;;5014738;28;19920;-70
2022/06/08 05:03:34;;;;;;;;;;;12.60;99.90;;;;;;5020489;28;19928;-69
2022/06/08 05:06:00;;;;;;;;;;;12.70;99.90;;;;;;5021936;28;19921;-70
2022/06/08 05:08:25;;;;;;;;;;;12.70;99.90;;;;;;5004700;28;20299;-70
2022/06/08 05:10:52;;;;;;;;;;;12.60;99.90;;;;;;5014173;28;20003;-70
2022/06/08 05:13:18;;;;;;;;;;;12.80;99.90;;;;;;5003699;28;20069;-71
2022/06/08 05:15:44;;;;;;;;;;;12.50;99.90;;;;;;5019984;28;19975;-71
2022/06/08 05:18:10;;;;;;;;;;;12.70;99.90;;;;;;5018627;28;19949;-71
2022/06/08 05:20:37;;;;;;;;;;;12.60;99.90;;;;;;5021537;28;19929;-71
2022/06/08 05:23:03;;;;;;;;;;;12.80;99.90;;;;;;5024995;28;19925;-71
2022/06/08 05:25:33;;;;;;;;;;;12.60;99.90;;;;;;5021103;28;19925;-71
2022/06/08 05:27:59;;;;;;;;;;;12.80;99.90;;;;;;5017989;28;19917;-71
2022/06/08 05:30:25;;;;;;;;;;;12.90;99.90;;;;;;5006186;28;19971;-71
2022/06/08 05:32:51;;;;;;;;;;;13.00;99.90;;;;;;5000021;28;19940;-70
2022/06/08 05:35:17;;;;;;;;;;;12.80;99.90;;;;;;5030644;28;19960;-71
2022/06/08 05:37:42;;;;;;;;;;;13.10;99.90;;;;;;5029813;28;19940;-71
2022/06/08 05:40:08;;;;;;;;;;;13.10;99.90;;;;;;5028621;28;19917;-70
2022/06/08 05:42:33;;;;;;;;;;;13.00;99.90;;;;;;5028506;28;19966;-70
2022/06/08 05:44:59;;;;;;;;;;;13.00;99.90;;;;;;5026742;28;19932;-70
2022/06/08 05:47:25;;;;;;;;;;;13.30;99.90;;;;;;5019644;28;20000;-70
2022/06/08 05:49:50;;;;;;;;;;;13.20;99.90;;;;;;4999637;28;20399;-71
2022/06/08 05:52:17;;;;;;;;;;;13.20;99.90;;;;;;5018835;28;19947;-70
2022/06/08 05:54:43;;;;;;;;;;;13.20;99.90;;;;;;5003534;28;19942;-70
2022/06/08 05:57:09;;;;;;;;;;;13.30;99.90;;;;;;5019236;28;20027;-70
2022/06/08 05:59:36;;;;;;;;;;;13.50;99.90;;;;;;5005747;28;19967;-70
2022/06/08 06:02:02;;;;;;;;;;;13.60;99.90;;;;;;5019626;28;19926;-71
2022/06/08 06:04:28;;;;;;;;;;;13.60;99.90;;;;;;5020633;28;19966;-68
2022/06/08 06:06:53;;;;;;;;;;;13.50;99.90;;;;;;5020653;28;19921;-68
2022/06/08 06:09:19;;;;;;;;;;;13.70;99.90;;;;;;5018844;28;19921;-69
2022/06/08 06:11:46;;;;;;;;;;;13.80;99.90;;;;;;5022432;28;20441;-69
2022/06/08 06:14:11;;;;;;;;;;;13.90;99.90;;;;;;5017684;28;20067;-69
2022/06/08 06:16:37;;;;;;;;;;;14.10;99.90;;;;;;5029520;28;19928;-69
2022/06/08 06:19:03;;;;;;;;;;;14.20;99.90;;;;;;5029504;28;19924;-69
2022/06/08 06:21:28;;;;;;;;;;;14.20;99.90;;;;;;5028747;28;19917;-69
2022/06/08 06:23:55;;;;;;;;;;;14.20;99.90;;;;;;5029378;28;19959;-69
2022/06/08 06:26:21;;;;;;;;;;;14.50;99.90;;;;;;5028508;28;19963;-69
2022/06/08 06:28:47;;;;;;;;;;;14.60;99.90;;;;;;5029519;28;20366;-69
2022/06/08 06:31:22;;;;;;;;;;;14.60;99.90;;;;;;5011362;28;19927;-70
2022/06/08 06:33:48;;;;;;;;;;;14.80;99.90;;;;;;5022674;28;19925;-70
2022/06/08 06:36:13;;;;;;;;;;;14.90;99.90;;;;;;5029645;28;19924;-70
2022/06/08 06:38:39;;;;;;;;;;;15.20;99.90;;;;;;5029419;28;19921;-71
2022/06/08 06:41:05;;;;;;;;;;;15.20;99.90;;;;;;5029555;28;19932;-71
2022/06/08 06:43:31;;;;;;;;;;;15.30;99.90;;;;;;5009480;28;20049;-70
2022/06/08 06:45:56;;;;;;;;;;;15.50;99.90;;;;;;5029459;28;19956;-70
2022/06/08 06:48:22;;;;;;;;;;;15.50;99.90;;;;;;5018170;28;19917;-71
2022/06/08 06:50:47;;;;;;;;;;;15.60;99.90;;;;;;5002773;28;19917;-70
2022/06/08 06:53:13;;;;;;;;;;;15.70;99.90;;;;;;5019546;28;19925;-70
2022/06/08 06:55:39;;;;;;;;;;;15.60;99.90;;;;;;5028077;28;19920;-70
2022/06/08 06:58:06;;;;;;;;;;;15.90;99.90;;;;;;5012567;28;19924;-70
2022/06/08 07:00:31;;;;;;;;;;;16.10;99.90;;;;;;5026057;28;19923;-70
2022/06/08 07:02:57;;;;;;;;;;;16.10;99.90;;;;;;5004611;28;19917;-70
2022/06/08 07:05:24;;;;;;;;;;;16.30;99.90;;;;;;5029343;28;19971;-70
2022/06/08 07:07:50;;;;;;;;;;;16.30;99.90;;;;;;5029701;28;19943;-69
2022/06/08 07:10:16;;;;;;;;;;;16.30;99.90;;;;;;5029753;28;20370;-71
2022/06/08 07:12:42;;;;;;;;;;;16.20;99.90;;;;;;5018707;28;19931;-70
2022/06/08 07:15:08;;;;;;;;;;;16.30;99.90;;;;;;5023467;28;20390;-69
2022/06/08 07:17:33;;;;;;;;;;;16.30;99.90;;;;;;5022552;28;19964;-70
2022/06/08 07:19:59;;;;;;;;;;;16.40;99.90;;;;;;5011031;28;19929;-70
2022/06/08 07:22:25;;;;;;;;;;;16.60;99.90;;;;;;5028944;28;19947;-71
2022/06/08 07:24:50;;;;;;;;;;;16.90;99.90;;;;;;5028895;28;19922;-71
2022/06/08 07:27:17;;;;;;;;;;;17.10;99.90;;;;;;5012873;28;19972;-71
2022/06/08 07:29:42;;;;;;;;;;;17.40;99.90;;;;;;5028957;28;20381;-70
2022/06/08 07:32:08;;;;;;;;;;;17.50;99.90;;;;;;5037649;28;20385;-71
2022/06/08 07:34:34;;;;;;;;;;;17.70;99.90;;;;;;5032714;28;19925;-70
2022/06/08 07:37:00;;;;;;;;;;;17.70;99.90;;;;;;5031840;28;19968;-70
2022/06/08 07:39:26;;;;;;;;;;;17.60;99.90;;;;;;5029139;28;19917;-70
2022/06/08 07:41:52;;;;;;;;;;;17.60;99.90;;;;;;5036692;28;19921;-70
2022/06/08 07:44:18;;;;;;;;;;;17.70;99.90;;;;;;5030125;28;19943;-70
2022/06/08 07:46:44;;;;;;;;;;;17.50;99.90;;;;;;5032184;28;20022;-70
2022/06/08 07:51:55;;;;;;;;;;;17.40;99.90;;;;;;5022326;28;19928;-70
2022/06/08 07:54:22;;;;;;;;;;;17.40;99.90;;;;;;5032628;28;19921;-71
2022/06/08 07:56:48;;;;;;;;;;;17.50;99.90;;;;;;5015902;28;19937;-70
2022/06/08 07:59:14;;;;;;;;;;;17.50;99.90;;;;;;5032578;28;20019;-71
2022/06/08 08:01:40;;;;;;;;;;;17.50;99.90;;;;;;5032293;28;20051;-70
2022/06/08 08:04:05;;;;;;;;;;;17.60;99.90;;;;;;5032538;28;20374;-70
2022/06/08 08:06:31;;;;;;;;;;;17.60;99.90;;;;;;5015988;28;19928;-70
2022/06/08 08:08:59;;;;;;;;;;;17.70;99.90;;;;;;5032164;28;19924;-71
2022/06/08 08:11:26;;;;;;;;;;;17.80;99.90;;;;;;5032301;28;19921;-70
2022/06/08 08:13:52;;;;;;;;;;;17.90;99.90;;;;;;5025916;28;19921;-70
2022/06/08 08:16:17;;;;;;;;;;;18.10;99.90;;;;;;5023828;28;20393;-79
2022/06/08 08:18:43;;;;;;;;;;;18.20;99.90;;;;;;5030679;28;20300;-78
2022/06/08 08:21:08;;;;;;;;;;;18.30;99.90;;;;;;5030905;28;19956;-77
2022/06/08 08:23:34;;;;;;;;;;;18.30;99.90;;;;;;5030615;28;19925;-78
2022/06/08 08:25:59;;;;;;;;;;;18.40;99.90;;;;;;5032274;28;19925;-78
2022/06/08 08:28:25;;;;;;;;;;;18.90;99.90;;;;;;5031224;28;19924;-78
2022/06/08 08:30:50;;;;;;;;;;;19.00;99.90;;;;;;5041966;28;19924;-78
2022/06/08 08:33:16;;;;;;;;;;;19.20;99.90;;;;;;5047520;28;20373;-78
2022/06/08 08:35:42;;;;;;;;;;;19.30;99.90;;;;;;5034428;28;20276;-77
2022/06/08 08:38:08;;;;;;;;;;;19.80;99.90;;;;;;5034703;28;19952;-78
2022/06/08 08:40:55;;;;;;;;;;;19.80;99.90;;;;;;5039801;28;19924;-78
2022/06/08 08:43:22;;;;;;;;;;;20.00;99.90;;;;;;5041915;28;19963;-78
2022/06/08 08:45:54;;;;;;;;;;;20.10;99.90;;;;;;5040802;28;20011;-78
2022/06/08 08:48:30;;;;;;;;;;;20.10;99.90;;;;;;5037724;28;19982;-78
2022/06/08 08:51:13;;;;;;;;;;;19.90;99.90;;;;;;5038585;28;19917;-78
2022/06/08 08:53:56;;;;;;;;;;;20.10;99.90;;;;;;5039899;28;20416;-78
2022/06/08 08:56:30;;;;;;;;;;;20.00;99.90;;;;;;5026794;28;19962;-78
2022/06/08 08:58:56;;;;;;;;;;;19.90;99.90;;;;;;5046046;28;19921;-78
2022/06/08 09:01:33;;;;;;;;;;;19.90;99.90;;;;;;5036464;28;19925;-78
2022/06/08 09:04:14;;;;;;;;;;;19.90;99.90;;;;;;5030388;28;19927;-71
2022/06/08 09:06:40;;;;;;;;;;;20.20;99.90;;;;;;5023467;28;20019;-71
2022/06/08 09:09:09;;;;;;;;;;;20.60;99.90;;;;;;5013151;28;20007;-71
2022/06/08 09:11:40;;;;;;;;;;;21.00;99.90;;;;;;5032771;28;19928;-71
2022/06/08 09:14:23;;;;;;;;;;;21.10;99.90;;;;;;5014571;28;19940;-78
2022/06/08 09:16:50;;;;;;;;;;;21.30;99.90;;;;;;5031042;28;19917;-71
2022/06/08 09:19:22;;;;;;;;;;;21.50;99.90;;;;;;5022515;28;20289;-71
2022/06/08 09:22:07;;;;;;;;;;;21.90;99.90;;;;;;5005937;28;19990;-71
2022/06/08 09:24:40;;;;;;;;;;;21.90;99.90;;;;;;5026076;28;19932;-71
2022/06/08 09:27:18;;;;;;;;;;;21.80;99.90;;;;;;5025189;28;19921;-71
2022/06/08 09:29:49;;;;;;;;;;;21.40;99.90;;;;;;5029427;28;20329;-71
2022/06/08 09:32:25;;;;;;;;;;;21.20;99.90;;;;;;5039738;28;19917;-71
2022/06/08 09:34:56;;;;;;;;;;;20.90;99.90;;;;;;5030840;28;19921;-71
2022/06/08 09:37:24;;;;;;;;;;;20.80;99.90;;;;;;5031304;28;19979;-71
2022/06/08 09:39:51;;;;;;;;;;;20.80;99.90;;;;;;5030671;28;19932;-71
2022/06/08 09:42:25;;;;;;;;;;;20.80;99.90;;;;;;5030794;28;19920;-71
2022/06/08 09:44:54;;;;;;;;;;;21.00;99.90;;;;;;5030281;28;19959;-71
2022/06/08 09:53:15;;;;;;;;;;;21.10;99.90;;;;;;5028566;28;19929;-71
2022/06/08 09:56:00;;;;;;;;;;;21.10;99.90;;;;;;5014550;28;20424;-71
2022/06/08 09:58:58;;;;;;;;;;;21.50;99.90;;;;;;5013898;28;19925;-71
2022/06/08 10:01:27;;;;;;;;;;;21.80;99.90;;;;;;4995522;28;19925;-71
2022/06/08 10:04:12;;;;;;;;;;;21.80;99.90;;;;;;5030287;28;19952;-71
2022/06/08 10:06:57;;;;;;;;;;;21.70;99.90;;;;;;5030201;28;19921;-70
2022/06/08 10:09:29;;;;;;;;;;;21.90;99.90;;;;;;5030096;28;20259;-70
2022/06/08 10:12:01;;;;;;;;;;;21.60;99.90;;;;;;5011490;28;20004;-71
2022/06/08 10:14:26;;;;;;;;;;;21.30;99.90;;;;;;5003033;28;20011;-70
2022/06/08 10:16:59;;;;;;;;;;;21.00;99.90;;;;;;5022211;28;20012;-70
2022/06/08 10:19:43;;;;;;;;;;;20.80;99.90;;;;;;5023343;28;19921;-70
2022/06/08 10:22:09;;;;;;;;;;;20.60;99.90;;;;;;5029626;28;19925;-70
2022/06/08 10:24:43;;;;;;;;;;;20.40;99.90;;;;;;5014131;28;19944;-70
2022/06/08 10:27:20;;;;;;;;;;;20.30;99.90;;;;;;5029206;28;19921;-71
2022/06/08 10:29:49;;;;;;;;;;;20.20;99.90;;;;;;5029145;28;19951;-70
2022/06/08 10:32:24;;;;;;;;;;;20.30;99.90;;;;;;5028920;28;20515;-71
2022/06/08 10:34:54;;;;;;;;;;;20.60;99.90;;;;;;5031004;28;19925;-70
2022/06/08 10:37:37;;;;;;;;;;;20.70;99.90;;;;;;5013874;28;19925;-70
2022/06/08 10:40:13;;;;;;;;;;;20.70;99.90;;;;;;5032902;28;20404;-70
2022/06/08 10:42:41;;;;;;;;;;;20.80;99.90;;;;;;5016606;28;19917;-70
2022/06/08 10:45:27;;;;;;;;;;;20.90;99.90;;;;;;5027095;28;19917;-70
2022/06/08 10:48:10;;;;;;;;;;;21.10;99.90;;;;;;5013030;28;19972;-70
2022/06/08 10:50:38;;;;;;;;;;;21.10;99.90;;;;;;5022383;28;19917;-79
2022/06/08 10:56:22;;;;;;;;;;;21.60;99.90;;;;;;5022020;28;19925;-70
2022/06/08 10:58:54;;;;;;;;;;;21.70;99.90;;;;;;5028615;28;19975;-70
2022/06/08 11:01:40;;;;;;;;;;;21.90;99.90;;;;;;5023068;28;19925;-70
2022/06/08 11:04:26;;;;;;;;;;;21.80;99.90;;;;;;5001636;28;19975;-78
2022/06/08 11:06:55;;;;;;;;;;;21.70;99.90;;;;;;5022728;28;19970;-78
2022/06/08 11:09:26;;;;;;;;;;;21.50;99.90;;;;;;5014820;28;19975;-79
2022/06/08 11:11:59;;;;;;;;;;;21.40;99.90;;;;;;5015408;28;19980;-71
2022/06/08 11:14:25;;;;;;;;;;;21.30;99.90;;;;;;5010197;28;20021;-70
2022/06/08 11:16:52;;;;;;;;;;;21.20;99.90;;;;;;5027967;28;19916;-70
2022/06/08 11:19:18;;;;;;;;;;;21.10;99.90;;;;;;5029097;28;19960;-70
2022/06/08 11:21:43;;;;;;;;;;;20.90;99.90;;;;;;5032881;28;19979;-70
2022/06/08 11:24:09;;;;;;;;;;;20.80;99.90;;;;;;5033040;28;20433;-70
2022/06/08 11:26:38;;;;;;;;;;;20.70;99.90;;;;;;5033437;28;19969;-70
2022/06/08 11:29:33;;;;;;;;;;;20.50;99.90;;;;;;5019209;28;20015;-70
2022/06/08 11:31:58;;;;;;;;;;;20.40;99.90;;;;;;5010463;28;19944;-70
2022/06/08 11:34:24;;;;;;;;;;;20.10;99.90;;;;;;5015075;28;20355;-79
2022/06/08 11:36:53;;;;;;;;;;;20.00;99.90;;;;;;5019604;28;19971;-79
2022/06/08 11:39:30;;;;;;;;;;;19.70;99.90;;;;;;5001684;28;20395;-70
2022/06/08 11:42:01;;;;;;;;;;;19.60;99.90;;;;;;5018398;28;19927;-79
2022/06/08 11:44:32;;;;;;;;;;;19.40;99.90;;;;;;5032617;28;19917;-78
2022/06/08 11:47:03;;;;;;;;;;;19.20;99.90;;;;;;5014417;28;19999;-79
2022/06/08 11:49:40;;;;;;;;;;;19.10;99.90;;;;;;5034173;28;20094;-79
2022/06/08 11:52:35;;;;;;;;;;;19.10;99.90;;;;;;5021949;28;19924;-79
2022/06/08 11:55:04;;;;;;;;;;;19.00;99.90;;;;;;5005130;28;19925;-79
2022/06/08 11:57:31;;;;;;;;;;;19.00;99.90;;;;;;5013649;28;19957;-79
2022/06/08 11:59:58;;;;;;;;;;;19.00;99.90;;;;;;5032665;28;20382;-79
2022/06/08 12:02:33;;;;;;;;;;;19.00;99.90;;;;;;5015906;28;19975;-79
2022/06/08 12:04:59;;;;;;;;;;;19.00;99.90;;;;;;5032515;28;19928;-79
2022/06/08 12:07:35;;;;;;;;;;;19.10;99.90;;;;;;5032505;28;19921;-79
2022/06/08 12:10:03;;;;;;;;;;;19.00;99.90;;;;;;5032930;28;19967;-79
2022/06/08 12:12:29;;;;;;;;;;;19.00;99.90;;;;;;5019347;28;19948;-78
2022/06/08 12:14:54;;;;;;;;;;;18.80;99.90;;;;;;5015643;28;19921;-79
2022/06/08 12:17:20;;;;;;;;;;;18.80;99.90;;;;;;5028478;28;20003;-78
2022/06/08 12:19:47;;;;;;;;;;;18.70;99.90;;;;;;5015280;28;19916;-78
2022/06/08 12:22:20;;;;;;;;;;;18.80;99.90;;;;;;5015228;28;19921;-79
2022/06/08 12:25:05;;;;;;;;;;;18.80;99.90;;;;;;5030755;28;20385;-78
2022/06/08 12:27:38;;;;;;;;;;;19.20;99.90;;;;;;5027065;28;19968;-78
2022/06/08 12:30:25;;;;;;;;;;;19.50;99.90;;;;;;5027623;28;19924;-79
2022/06/08 12:32:55;;;;;;;;;;;19.80;99.90;;;;;;5018119;28;20299;-78
2022/06/08 12:35:23;;;;;;;;;;;20.00;99.90;;;;;;5021745;28;19997;-79
2022/06/08 12:38:00;;;;;;;;;;;19.90;99.90;;;;;;5011785;28;20014;-77
2022/06/08 12:40:29;;;;;;;;;;;19.80;99.90;;;;;;5023639;28;20480;-79
2022/06/08 12:43:12;;;;;;;;;;;19.60;99.90;;;;;;5010239;28;19964;-70
2022/06/08 12:45:40;;;;;;;;;;;19.30;99.90;;;;;;5024322;28;20437;-69
2022/06/08 12:48:24;;;;;;;;;;;18.90;99.90;;;;;;5025239;28;19924;-70
2022/06/08 12:50:51;;;;;;;;;;;18.60;99.90;;;;;;5007308;28;19937;-70
2022/06/08 12:53:16;;;;;;;;;;;18.20;99.90;;;;;;5014862;28;19922;-70
2022/06/08 12:55:42;;;;;;;;;;;17.90;99.90;;;;;;5025810;28;19954;-69
2022/06/08 12:58:08;;;;;;;;;;;17.60;99.90;;;;;;5021557;28;19936;-70
2022/06/08 13:00:36;;;;;;;;;;;17.40;99.90;;;;;;5034673;28;19921;-70
2022/06/08 13:03:16;;;;;;;;;;;17.30;99.90;;;;;;5024479;28;19928;-70
2022/06/08 13:05:42;;;;;;;;;;;17.30;99.90;;;;;;5018473;28;19921;-70
2022/06/08 13:08:12;;;;;;;;;;;17.10;99.90;;;;;;5013038;28;19928;-69
2022/06/08 13:10:38;;;;;;;;;;;17.10;99.90;;;;;;5023161;28;20036;-69
2022/06/08 13:13:05;;;;;;;;;;;17.00;99.90;;;;;;5023525;28;20004;-71
2022/06/08 13:15:33;;;;;;;;;;;17.10;99.90;;;;;;5022308;28;19921;-70
2022/06/08 13:17:59;;;;;;;;;;;17.10;99.90;;;;;;5030864;28;19964;-69
2022/06/08 13:20:26;;;;;;;;;;;16.90;99.90;;;;;;5030763;28;19972;-69
2022/06/08 13:22:52;;;;;;;;;;;16.90;99.90;;;;;;5029524;28;20109;-69
2022/06/08 13:25:20;;;;;;;;;;;16.90;99.90;;;;;;5034363;28;19932;-69
2022/06/08 13:27:48;;;;;;;;;;;16.80;99.90;;;;;;5028487;28;19921;-69
2022/06/08 13:30:18;;;;;;;;;;;16.80;99.90;;;;;;5027530;28;20348;-69
2022/06/08 13:32:45;;;;;;;;;;;16.80;99.90;;;;;;5011184;28;19918;-69
2022/06/08 13:35:10;;;;;;;;;;;16.70;99.90;;;;;;5035143;28;19986;-69
2022/06/08 13:37:41;;;;;;;;;;;16.60;99.90;;;;;;5027991;28;19941;-69
2022/06/08 13:40:24;;;;;;;;;;;16.70;99.90;;;;;;5036314;28;20436;-69
2022/06/08 13:42:50;;;;;;;;;;;16.60;99.90;;;;;;5033522;28;19925;-70
2022/06/08 13:45:21;;;;;;;;;;;16.60;99.90;;;;;;5030394;28;19921;-69
2022/06/08 13:47:53;;;;;;;;;;;16.70;99.90;;;;;;5038915;28;19991;-69
2022/06/08 13:50:27;;;;;;;;;;;16.70;99.90;;;;;;5028155;28;19925;-70
2022/06/08 13:52:54;;;;;;;;;;;16.90;99.90;;;;;;5028770;28;19921;-70
2022/06/08 13:55:26;;;;;;;;;;;17.00;99.90;;;;;;5015433;28;19921;-71
2022/06/08 13:57:53;;;;;;;;;;;16.90;99.90;;;;;;5026458;28;20066;-70
2022/06/08 14:00:19;;;;;;;;;;;17.00;99.90;;;;;;5030004;28;20377;-70
2022/06/08 14:02:47;;;;;;;;;;;17.00;99.90;;;;;;5035640;28;19921;-70
2022/06/08 14:05:17;;;;;;;;;;;17.00;99.90;;;;;;5027304;28;20387;-70
2022/06/08 14:13:13;;;;;;;;;;;17.20;99.90;;;;;;5026354;28;19987;-69
2022/06/08 14:15:40;;;;;;;;;;;17.20;99.90;;;;;;5030941;28;20398;-70
2022/06/08 14:18:05;;;;;;;;;;;17.30;99.90;;;;;;5022553;28;20047;-70
2022/06/08 14:20:33;;;;;;;;;;;17.40;99.90;;;;;;5007053;28;20374;-70
2022/06/08 14:23:00;;;;;;;;;;;17.30;99.90;;;;;;5025525;28;20262;-70
2022/06/08 14:25:26;;;;;;;;;;;17.50;99.90;;;;;;5027115;28;19921;-70
2022/06/08 14:27:52;;;;;;;;;;;17.50;99.90;;;;;;5029825;28;19917;-70
2022/06/08 14:30:19;;;;;;;;;;;17.50;99.90;;;;;;5012266;28;20286;-69
2022/06/08 14:32:46;;;;;;;;;;;17.60;99.90;;;;;;5028848;28;19917;-69
2022/06/08 14:35:17;;;;;;;;;;;17.70;99.90;;;;;;5028762;28;20253;-70
2022/06/08 14:37:42;;;;;;;;;;;17.70;99.90;;;;;;5012979;28;19917;-70
2022/06/08 14:40:28;;;;;;;;;;;17.70;99.90;;;;;;5028486;28;19925;-69
2022/06/08 14:42:54;;;;;;;;;;;17.60;99.90;;;;;;5036957;28;20400;-70
2022/06/08 14:45:21;;;;;;;;;;;17.60;99.90;;;;;;5029705;28;19921;-69
2022/06/08 14:47:46;;;;;;;;;;;17.40;99.90;;;;;;5012152;28;19917;-69
2022/06/08 14:50:18;;;;;;;;;;;17.50;99.90;;;;;;5031981;28;19982;-69